Time;durP1;ratioP1;P1;durP2;ratioP2;P2;SDS_P1;SDS_P2;PMS_P1;PMS_P2;Temp;Humidity;BMP_temperature;BMP_pressure;BME280_temperature;BME280_humidity;BME280_pressure;Samples;Min_cycle;Max_cycle;Signal;HPM_P1;HPM_P2
2022/01/06 00:00:08;;;;;;;6.50;0.97;;;;;;;3.44;100.00;99862.81;5071339;28;20257;-75
2022/01/06 00:02:33;;;;;;;0.20;0.20;;;;;;;3.40;100.00;99859.06;5071257;28;20170;-74
2022/01/06 00:04:59;;;;;;;0.10;0.10;;;;;;;3.38;100.00;99858.53;5071092;28;20170;-75
2022/01/06 00:07:24;;;;;;;0.30;0.30;;;;;;;3.37;100.00;99865.03;5071311;28;20523;-74
2022/01/06 00:09:51;;;;;;;7.33;0.83;;;;;;;3.37;100.00;99865.84;5071388;28;20174;-75
2022/01/06 00:12:19;;;;;;;0.20;0.20;;;;;;;3.33;100.00;99870.19;5071539;28;20175;-75
2022/01/06 00:15:10;;;;;;;1.53;1.00;;;;;;;3.31;100.00;99872.31;5071050;28;20681;-75
2022/01/06 00:18:28;;;;;;;5.93;1.80;;;;;;;3.29;100.00;99867.22;5071101;28;20185;-75
2022/01/06 00:25:45;;;;;;;0.37;0.30;;;;;;;3.28;100.00;99886.38;5071481;28;20167;-75
2022/01/06 00:28:12;;;;;;;2.50;1.10;;;;;;;3.27;100.00;99899.06;5071202;28;20181;-75
2022/01/06 00:30:37;;;;;;;1.20;0.83;;;;;;;3.29;100.00;99898.81;5069664;28;20186;-76
2022/01/06 00:33:02;;;;;;;0.40;0.03;;;;;;;3.26;100.00;99900.16;5069056;28;20194;-75
2022/01/06 00:35:28;;;;;;;1.87;0.67;;;;;;;3.26;100.00;99904.75;5066392;28;20230;-75
2022/01/06 00:37:53;;;;;;;2.70;1.73;;;;;;;3.25;100.00;99893.16;5071344;28;20183;-75
2022/01/06 00:40:18;;;;;;;13.97;1.80;;;;;;;3.23;100.00;99899.91;5070846;28;20197;-75
2022/01/06 00:42:44;;;;;;;13.23;3.13;;;;;;;3.19;100.00;99898.84;5070895;28;20202;-74
2022/01/06 00:45:09;;;;;;;9.70;2.57;;;;;;;3.14;100.00;99913.16;5071909;28;20166;-75
2022/01/06 00:47:34;;;;;;;7.90;1.57;;;;;;;3.10;100.00;99912.09;5079714;28;20543;-76
2022/01/06 00:50:00;;;;;;;6.53;0.50;;;;;;;3.09;100.00;99907.78;5074419;28;20186;-76
2022/01/06 00:52:25;;;;;;;0.20;0.20;;;;;;;3.09;100.00;99918.59;5071320;28;20307;-76
2022/01/06 00:54:51;;;;;;;3.67;1.00;;;;;;;3.09;100.00;99925.88;5070947;28;20182;-75
2022/01/06 00:57:16;;;;;;;2.67;0.50;;;;;;;3.07;100.00;99934.25;5074765;28;20201;-75
2022/01/06 00:59:41;;;;;;;0.40;0.40;;;;;;;3.01;100.00;99934.53;5074769;28;20817;-77
2022/01/06 01:02:07;;;;;;;3.60;0.27;;;;;;;2.93;100.00;99946.69;5074757;28;20579;-77
2022/01/06 01:04:32;;;;;;;1.20;0.90;;;;;;;2.87;100.00;99956.66;5074676;28;20174;-77
2022/01/06 01:06:58;;;;;;;0.10;0.10;;;;;;;2.81;100.00;99946.97;5074881;28;20179;-77
2022/01/06 01:09:23;;;;;;;2.90;0.40;;;;;;;2.76;100.00;99960.47;5074548;28;20167;-77
2022/01/06 01:11:48;;;;;;;4.17;1.57;;;;;;;2.72;100.00;99962.09;5074794;28;20221;-77
2022/01/06 01:14:25;;;;;;;1.40;0.40;;;;;;;2.62;100.00;99978.28;5074486;28;20186;-77
2022/01/06 01:16:56;;;;;;;1.90;0.53;;;;;;;2.58;100.00;99994.19;5074164;28;20202;-77
2022/01/06 01:19:22;;;;;;;1.90;0.10;;;;;;;2.46;100.00;100025.16;5074249;28;20808;-74
2022/01/06 01:21:48;;;;;;;1.27;0.47;;;;;;;2.22;100.00;100036.47;5074297;28;20170;-75
2022/01/06 01:24:13;;;;;;;0.20;0.20;;;;;;;1.99;100.00;100026.16;5074245;28;20183;-75
2022/01/06 01:26:39;;;;;;;0.77;0.40;;;;;;;1.76;100.00;100025.56;5074032;28;20178;-74
2022/01/06 01:29:09;;;;;;;1.93;0.43;;;;;;;1.63;100.00;100022.53;5074135;28;20198;-74
2022/01/06 01:31:42;;;;;;;3.63;0.70;;;;;;;1.60;100.00;100031.16;5074032;28;20580;-77
2022/01/06 01:34:09;;;;;;;0.60;0.57;;;;;;;1.59;100.00;100054.56;5074649;28;20496;-78
2022/01/06 01:36:35;;;;;;;8.23;2.53;;;;;;;1.64;100.00;100051.88;5073843;28;20209;-77
2022/01/06 01:39:00;;;;;;;5.70;0.80;;;;;;;1.66;100.00;100060.50;5074216;28;20379;-78
2022/01/06 01:41:26;;;;;;;0.93;0.40;;;;;;;1.63;100.00;100069.13;5073970;28;20206;-77
2022/01/06 01:43:54;;;;;;;0.67;0.50;;;;;;;1.58;100.00;100077.16;5073911;28;20626;-78
2022/01/06 01:46:27;;;;;;;1.07;0.30;;;;;;;1.66;100.00;100087.44;5073674;28;20667;-75
2022/01/06 01:49:12;;;;;;;1.80;0.63;;;;;;;1.60;100.00;100099.25;5073788;28;20163;-75
2022/01/06 01:51:41;;;;;;;0.70;0.30;;;;;;;1.64;100.00;100104.94;5073606;28;20424;-74
2022/01/06 01:54:07;;;;;;;3.13;0.67;;;;;;;1.63;100.00;100122.97;5073720;28;20413;-74
2022/01/06 01:56:32;;;;;;;1.37;0.77;;;;;;;1.57;100.00;100124.00;5073169;28;20208;-74
2022/01/06 01:58:58;;;;;;;2.20;0.40;;;;;;;1.57;100.00;100126.69;5073765;28;20209;-75
2022/01/06 02:01:23;;;;;;;0.30;0.30;;;;;;;1.57;100.00;100147.41;5073728;28;20693;-74
2022/01/06 02:03:49;;;;;;;6.00;0.97;;;;;;;1.56;100.00;100159.25;5073781;28;20209;-74
2022/01/06 02:06:14;;;;;;;0.73;0.10;;;;;;;1.57;100.00;100155.47;5069975;28;20228;-75
2022/01/06 02:08:40;;;;;;;0.30;0.27;;;;;;;1.48;100.00;100160.56;5073029;28;20201;-75
2022/01/06 02:11:05;;;;;;;2.63;0.53;;;;;;;1.39;100.00;100168.28;5073344;28;20269;-74
2022/01/06 02:13:31;;;;;;;0.50;0.50;;;;;;;1.45;100.00;100169.16;5073392;28;20163;-75
2022/01/06 02:15:59;;;;;;;4.47;0.60;;;;;;;1.34;100.00;100173.63;5073066;28;20280;-74
2022/01/06 02:18:25;;;;;;;0.50;0.27;;;;;;;1.40;100.00;100172.59;5072925;28;20166;-75
2022/01/06 02:20:51;;;;;;;0.47;0.47;;;;;;;1.41;100.00;100181.47;5073118;28;20623;-75
2022/01/06 02:23:18;;;;;;;3.20;0.20;;;;;;;1.36;100.00;100181.44;5072799;28;20432;-74
2022/01/06 02:25:43;;;;;;;0.27;0.27;;;;;;;1.32;100.00;100170.41;5073017;28;20206;-74
2022/01/06 02:28:09;;;;;;;0.30;0.23;;;;;;;1.26;100.00;100184.03;5073023;28;20579;-74
2022/01/06 02:30:35;;;;;;;0.33;0.23;;;;;;;1.18;100.00;100185.34;5072955;28;20175;-77
2022/01/06 02:33:02;;;;;;;3.30;0.30;;;;;;;1.09;100.00;100187.69;5072926;28;20232;-77
2022/01/06 02:35:30;;;;;;;0.50;0.50;;;;;;;0.98;100.00;100185.13;5072660;28;20205;-77
2022/01/06 02:37:55;;;;;;;0.10;0.10;;;;;;;0.90;100.00;100183.75;5072799;28;20210;-77
2022/01/06 02:40:23;;;;;;;2.77;0.47;;;;;;;0.85;100.00;100180.97;5072898;28;20443;-75
2022/01/06 02:42:52;;;;;;;2.57;0.70;;;;;;;0.83;100.00;100191.19;5072959;28;20190;-77
2022/01/06 02:45:20;;;;;;;3.20;0.47;;;;;;;0.78;100.00;100189.25;5072446;28;20468;-77
2022/01/06 02:47:47;;;;;;;0.93;0.70;;;;;;;0.75;100.00;100191.66;5072669;28;20566;-77
2022/01/06 02:50:14;;;;;;;2.57;0.20;;;;;;;0.71;100.00;100199.38;5071274;28;20405;-74
2022/01/06 02:52:39;;;;;;;0.47;0.30;;;;;;;0.65;100.00;100197.72;5072818;28;20186;-76
2022/01/06 02:55:06;;;;;;;0.77;0.37;;;;;;;0.59;100.00;100201.41;5072482;28;20432;-77
2022/01/06 02:57:32;;;;;;;4.30;1.43;;;;;;;0.55;100.00;100206.47;5072378;28;20289;-76
2022/01/06 02:59:57;;;;;;;0.20;0.20;;;;;;;0.53;100.00;100205.09;5072363;28;20500;-76
2022/01/06 03:02:22;;;;;;;0.90;0.60;;;;;;;0.51;100.00;100207.22;5072412;28;20262;-77
2022/01/06 03:04:48;;;;;;;0.30;0.30;;;;;;;0.47;100.00;100209.63;5072106;28;20250;-76
2022/01/06 03:07:13;;;;;;;0.20;0.20;;;;;;;0.40;100.00;100217.03;5072217;28;20213;-76
2022/01/06 03:09:41;;;;;;;3.43;0.20;;;;;;;0.37;100.00;100233.66;5072288;28;20641;-76
2022/01/06 03:15:09;;;;;;;0.10;0.10;;;;;;;0.28;100.00;100233.25;5067011;28;20421;-76
2022/01/06 03:17:37;;;;;;;0.27;0.27;;;;;;;0.25;100.00;100233.78;5071444;28;20476;-77
2022/01/06 03:20:05;;;;;;;0.00;0.00;;;;;;;0.22;100.00;100241.53;5070562;28;20421;-76
2022/01/06 03:22:30;;;;;;;0.07;0.07;;;;;;;0.20;100.00;100244.47;5071885;28;20448;-76
2022/01/06 03:24:56;;;;;;;4.77;0.30;;;;;;;0.21;100.00;100248.75;5072153;28;20803;-77
2022/01/06 03:27:22;;;;;;;0.50;0.47;;;;;;;0.18;100.00;100251.97;5071683;28;20182;-77
2022/01/06 03:29:49;;;;;;;0.00;0.00;;;;;;;0.15;100.00;100254.31;5071829;28;20627;-77
2022/01/06 03:32:15;;;;;;;0.40;0.33;;;;;;;0.16;100.00;100258.63;5071771;28;20626;-76
2022/01/06 03:34:41;;;;;;;7.77;0.53;;;;;;;0.15;100.00;100262.38;5071902;28;20550;-77
2022/01/06 03:37:06;;;;;;;0.20;0.20;;;;;;;0.14;100.00;100269.59;5071617;28;20210;-76
2022/01/06 03:39:32;;;;;;;0.50;0.17;;;;;;;0.13;100.00;100273.34;5071482;28;20261;-77
2022/01/06 03:41:58;;;;;;;0.10;0.10;;;;;;;0.10;100.00;100273.84;5071775;28;20229;-77
2022/01/06 03:44:24;;;;;;;0.00;0.00;;;;;;;0.04;100.00;100282.09;5071474;28;20185;-76
2022/01/06 03:46:50;;;;;;;0.00;0.00;;;;;;;-0.02;100.00;100275.81;5071285;28;20420;-76
2022/01/06 03:49:15;;;;;;;0.57;0.00;;;;;;;-0.03;100.00;100275.00;5071672;28;20214;-76
2022/01/06 03:51:41;;;;;;;0.00;0.00;;;;;;;-0.04;100.00;100284.13;5071378;28;20549;-77
2022/01/06 03:54:06;;;;;;;0.03;0.03;;;;;;;-0.06;100.00;100288.94;5071324;28;20262;-77
2022/01/06 03:56:31;;;;;;;0.00;0.00;;;;;;;-0.06;100.00;100294.28;5070754;28;20247;-76
2022/01/06 03:58:57;;;;;;;0.00;0.00;;;;;;;-0.07;100.00;100298.03;5069896;28;20182;-77
2022/01/06 04:01:22;;;;;;;0.00;0.00;;;;;;;-0.07;100.00;100289.97;5071150;28;20182;-77
2022/01/06 04:03:48;;;;;;;0.10;0.10;;;;;;;-0.07;100.00;100300.72;5071076;28;20171;-77
2022/01/06 04:06:17;;;;;;;0.10;0.10;;;;;;;-0.08;100.00;100309.03;5071360;28;20182;-76
2022/01/06 04:08:42;;;;;;;0.20;0.00;;;;;;;-0.10;100.00;100308.47;5071181;28;20677;-76
2022/01/06 04:11:08;;;;;;;0.30;0.30;;;;;;;-0.15;100.00;100303.81;5071224;28;20405;-76
2022/01/06 04:13:34;;;;;;;0.50;0.40;;;;;;;-0.20;100.00;100310.97;5069806;28;20181;-76
2022/01/06 04:16:02;;;;;;;0.23;0.20;;;;;;;-0.23;100.00;100301.53;5070860;28;20190;-77
2022/01/06 04:18:28;;;;;;;4.17;0.20;;;;;;;-0.29;100.00;100307.88;5070775;28;20641;-77
2022/01/06 04:20:54;;;;;;;0.00;0.00;;;;;;;-0.32;100.00;100309.16;5070980;28;20449;-77
2022/01/06 04:23:19;;;;;;;0.87;0.10;;;;;;;-0.32;100.00;100306.50;5070882;28;20530;-76
2022/01/06 04:25:44;;;;;;;0.03;0.03;;;;;;;-0.34;100.00;100313.16;5070756;28;20174;-76
2022/01/06 04:28:10;;;;;;;0.00;0.00;;;;;;;-0.38;100.00;100314.72;5070902;28;20243;-77
2022/01/06 04:30:35;;;;;;;0.00;0.00;;;;;;;-0.40;100.00;100312.28;5069993;28;20182;-77
2022/01/06 04:33:01;;;;;;;0.10;0.00;;;;;;;-0.44;100.00;100329.06;5069624;28;20193;-77
2022/01/06 04:35:34;;;;;;;0.40;0.20;;;;;;;-0.47;100.00;100329.56;5069342;28;20175;-76
2022/01/06 04:38:00;;;;;;;0.00;0.00;;;;;;;-0.53;100.00;100333.22;5069415;28;20218;-77
2022/01/06 04:40:25;;;;;;;0.37;0.37;;;;;;;-0.58;100.00;100335.81;5070788;28;20498;-77
2022/01/06 04:42:50;;;;;;;0.00;0.00;;;;;;;-0.58;100.00;100341.97;5070853;28;20172;-77
2022/01/06 04:45:16;;;;;;;0.00;0.00;;;;;;;-0.54;100.00;100345.00;5069355;28;20261;-76
2022/01/06 04:47:41;;;;;;;0.00;0.00;;;;;;;-0.55;100.00;100348.75;5070777;28;20561;-76
2022/01/06 04:50:07;;;;;;;0.00;0.00;;;;;;;-0.60;100.00;100358.31;5070649;28;20209;-77
2022/01/06 04:52:32;;;;;;;0.00;0.00;;;;;;;-0.65;100.00;100365.47;5070978;28;20167;-77
2022/01/06 04:54:58;;;;;;;0.00;0.00;;;;;;;-0.66;100.00;100364.66;5070548;28;20170;-77
2022/01/06 04:57:23;;;;;;;0.07;0.00;;;;;;;-0.65;100.00;100376.19;5070787;28;20662;-76
2022/01/06 04:59:48;;;;;;;0.10;0.10;;;;;;;-0.62;100.00;100392.63;5070552;28;20487;-77
2022/01/06 05:02:14;;;;;;;0.10;0.10;;;;;;;-0.54;100.00;100387.94;5070364;28;20575;-76
2022/01/06 05:04:39;;;;;;;0.00;0.00;;;;;;;-0.51;100.00;100395.50;5069163;28;20171;-77
2022/01/06 05:07:04;;;;;;;0.00;0.00;;;;;;;-0.51;100.00;100404.38;5070329;28;20266;-76
2022/01/06 05:09:30;;;;;;;1.30;0.30;;;;;;;-0.50;100.00;100400.63;5068200;28;20436;-77
2022/01/06 05:11:55;;;;;;;0.20;0.20;;;;;;;-0.51;100.00;100404.38;5070586;28;20173;-77
2022/01/06 05:14:21;;;;;;;0.00;0.00;;;;;;;-0.56;100.00;100422.25;5070496;28;20258;-77
2022/01/06 05:16:46;;;;;;;0.00;0.00;;;;;;;-0.57;100.00;100417.94;5070528;28;20669;-77
2022/01/06 05:19:11;;;;;;;5.20;1.50;;;;;;;-0.68;100.00;100424.97;5070120;28;20198;-75
2022/01/06 05:21:37;;;;;;;0.00;0.00;;;;;;;-0.70;100.00;100425.22;5070310;28;20675;-76
2022/01/06 05:24:10;;;;;;;0.40;0.40;;;;;;;-0.71;100.00;100423.56;5070321;28;20186;-75
2022/01/06 05:26:35;;;;;;;0.10;0.10;;;;;;;-0.79;100.00;100426.63;5070135;28;20668;-76
2022/01/06 05:29:01;;;;;;;0.40;0.40;;;;;;;-0.81;100.00;100435.97;5070205;28;20421;-75
2022/01/06 05:31:26;;;;;;;0.00;0.00;;;;;;;-0.75;100.00;100437.69;5070281;28;20178;-75
2022/01/06 05:33:51;;;;;;;1.27;0.20;;;;;;;-0.78;100.00;100441.66;5068969;28;20266;-75
2022/01/06 05:36:17;;;;;;;2.83;0.20;;;;;;;-0.80;100.00;100448.31;5070125;28;20201;-75
2022/01/06 05:38:42;;;;;;;0.00;0.00;;;;;;;-0.75;100.00;100457.28;5070197;28;20228;-75
2022/01/06 05:41:07;;;;;;;0.00;0.00;;;;;;;-0.72;100.00;100448.78;5071141;28;20186;-75
2022/01/06 05:43:33;;;;;;;0.10;0.10;;;;;;;-0.64;100.00;100461.81;5074053;28;20183;-76
2022/01/06 05:45:59;;;;;;;0.00;0.00;;;;;;;-0.57;100.00;100466.22;5073820;28;20178;-76
2022/01/06 05:48:25;;;;;;;0.53;0.40;;;;;;;-0.52;100.00;100463.66;5073597;28;20170;-75
2022/01/06 05:50:51;;;;;;;0.10;0.10;;;;;;;-0.45;100.00;100475.84;5072479;28;20445;-76
2022/01/06 05:53:17;;;;;;;0.10;0.10;;;;;;;-0.50;100.00;100466.91;5073680;28;20163;-75
2022/01/06 05:55:43;;;;;;;0.00;0.00;;;;;;;-0.60;100.00;100462.94;5073426;28;20456;-75
2022/01/06 05:58:08;;;;;;;0.00;0.00;;;;;;;-0.56;100.00;100467.88;5073518;28;20462;-76
2022/01/06 06:00:33;;;;;;;0.10;0.10;;;;;;;-0.54;100.00;100476.47;5073554;28;20174;-76
2022/01/06 06:02:59;;;;;;;0.00;0.00;;;;;;;-0.50;100.00;100472.25;5073574;28;20258;-75
2022/01/06 06:05:25;;;;;;;0.10;0.10;;;;;;;-0.49;100.00;100476.56;5073249;28;20166;-76
2022/01/06 06:07:50;;;;;;;0.13;0.13;;;;;;;-0.51;100.00;100474.13;5072225;28;20178;-76
2022/01/06 06:10:15;;;;;;;0.20;0.20;;;;;;;-0.45;100.00;100478.53;5073359;28;20175;-76
2022/01/06 06:12:41;;;;;;;0.00;0.00;;;;;;;-0.50;100.00;100488.38;5073720;28;20245;-76
2022/01/06 06:15:06;;;;;;;0.00;0.00;;;;;;;-0.44;100.00;100493.59;5073497;28;20794;-76
2022/01/06 06:17:32;;;;;;;1.60;1.60;;;;;;;-0.43;100.00;100499.78;5073179;28;20603;-76
2022/01/06 06:19:57;;;;;;;0.00;0.00;;;;;;;-0.34;100.00;100492.97;5073146;28;20197;-76
2022/01/06 06:22:22;;;;;;;0.00;0.00;;;;;;;-0.26;100.00;100500.66;5073030;28;20549;-76
2022/01/06 06:24:48;;;;;;;0.13;0.13;;;;;;;-0.26;100.00;100500.66;5073047;28;20607;-74
2022/01/06 06:27:13;;;;;;;0.33;0.33;;;;;;;-0.18;100.00;100507.53;5073073;28;20166;-75
2022/01/06 06:29:38;;;;;;;0.00;0.00;;;;;;;-0.10;100.00;100512.53;5073370;28;20186;-75
2022/01/06 06:32:04;;;;;;;0.00;0.00;;;;;;;-0.06;100.00;100522.53;5071860;28;20189;-75
2022/01/06 06:34:30;;;;;;;0.30;0.30;;;;;;;0.03;100.00;100522.16;5071651;28;20177;-74
2022/01/06 06:36:55;;;;;;;0.10;0.10;;;;;;;-0.02;100.00;100528.25;5072625;28;20468;-75
2022/01/06 06:39:21;;;;;;;0.37;0.37;;;;;;;-0.08;100.00;100531.88;5072828;28;20178;-75
2022/01/06 06:41:46;;;;;;;0.00;0.00;;;;;;;-0.09;100.00;100538.31;5072832;28;20182;-75
2022/01/06 06:44:12;;;;;;;0.23;0.23;;;;;;;-0.09;100.00;100544.50;5071738;28;20198;-74
2022/01/06 06:46:37;;;;;;;0.10;0.10;;;;;;;-0.15;100.00;100552.69;5072618;28;20171;-75
2022/01/06 06:49:03;;;;;;;0.30;0.30;;;;;;;-0.11;100.00;100554.66;5072775;28;20250;-74
2022/01/06 06:51:28;;;;;;;0.50;0.50;;;;;;;-0.09;100.00;100557.13;5072656;28;20218;-75
2022/01/06 06:53:53;;;;;;;0.00;0.00;;;;;;;-0.16;100.00;100567.16;5071804;28;20638;-75
2022/01/06 06:56:19;;;;;;;0.00;0.00;;;;;;;-0.13;100.00;100559.47;5072350;28;20530;-75
2022/01/06 06:58:44;;;;;;;0.20;0.20;;;;;;;-0.14;100.00;100563.22;5072469;28;20249;-75
2022/01/06 07:01:09;;;;;;;0.20;0.20;;;;;;;-0.12;100.00;100565.66;5071244;28;20171;-74
2022/01/06 07:03:35;;;;;;;0.00;0.00;;;;;;;-0.14;100.00;100573.13;5072523;28;20175;-75
2022/01/06 07:06:00;;;;;;;0.00;0.00;;;;;;;-0.11;100.00;100581.53;5072122;28;20178;-75
2022/01/06 07:08:25;;;;;;;0.10;0.10;;;;;;;-0.09;100.00;100586.66;5072543;28;20174;-74
2022/01/06 07:10:51;;;;;;;0.00;0.00;;;;;;;-0.08;100.00;100575.66;5072405;28;20202;-75
2022/01/06 07:13:18;;;;;;;0.13;0.13;;;;;;;-0.08;100.00;100578.34;5072510;28;20170;-75
2022/01/06 07:15:44;;;;;;;0.43;0.43;;;;;;;-0.10;100.00;100587.72;5072229;28;20266;-75
2022/01/06 07:18:10;;;;;;;0.00;0.00;;;;;;;-0.11;100.00;100584.22;5071810;28;20808;-76
2022/01/06 07:20:36;;;;;;;0.40;0.23;;;;;;;-0.13;100.00;100582.81;5072077;28;20481;-75
2022/01/06 07:23:01;;;;;;;0.00;0.00;;;;;;;-0.15;100.00;100595.63;5071995;28;20187;-75
2022/01/06 07:25:26;;;;;;;0.40;0.40;;;;;;;-0.15;100.00;100607.19;5071826;28;20253;-75
2022/01/06 07:27:52;;;;;;;0.73;0.73;;;;;;;-0.12;100.00;100604.06;5072156;28;20187;-75
2022/01/06 07:30:17;;;;;;;0.07;0.07;;;;;;;-0.09;100.00;100603.56;5071919;28;20203;-74
2022/01/06 07:32:47;;;;;;;0.77;0.77;;;;;;;-0.10;100.00;100604.63;5072163;28;20320;-75
2022/01/06 07:35:13;;;;;;;0.40;0.40;;;;;;;-0.10;100.00;100601.13;5071557;28;20543;-75
2022/01/06 07:37:39;;;;;;;9.37;1.07;;;;;;;0.02;100.00;100603.78;5071703;28;20522;-75
2022/01/06 07:40:06;;;;;;;0.17;0.17;;;;;;;-0.03;100.00;100604.47;5071520;28;20992;-76
2022/01/06 07:42:32;;;;;;;0.93;0.40;;;;;;;0.01;100.00;100605.66;5071683;28;20301;-76
2022/01/06 07:45:00;;;;;;;0.93;0.93;;;;;;;0.02;100.00;100614.53;5071875;28;20496;-77
2022/01/06 07:47:26;;;;;;;0.53;0.53;;;;;;;0.06;100.00;100623.75;5072251;28;20529;-75
2022/01/06 07:49:51;;;;;;;0.57;0.57;;;;;;;0.03;100.00;100616.97;5073286;28;20505;-75
2022/01/06 07:52:17;;;;;;;0.00;0.00;;;;;;;0.06;100.00;100621.06;5081888;28;20449;-75
2022/01/06 07:54:43;;;;;;;0.63;0.30;;;;;;;0.09;100.00;100631.31;5073749;28;20642;-74
2022/01/06 07:57:08;;;;;;;0.37;0.33;;;;;;;0.09;100.00;100637.50;5071699;28;20824;-74
2022/01/06 07:59:34;;;;;;;0.33;0.33;;;;;;;0.09;100.00;100642.06;5071415;28;20177;-75
2022/01/06 08:01:59;;;;;;;0.83;0.73;;;;;;;0.08;100.00;100657.38;5071374;28;20174;-75
2022/01/06 08:04:24;;;;;;;0.60;0.60;;;;;;;0.11;100.00;100658.75;5071471;28;20201;-75
2022/01/06 08:06:50;;;;;;;0.83;0.83;;;;;;;0.09;100.00;100661.69;5071151;28;20232;-75
2022/01/06 08:09:15;;;;;;;0.47;0.47;;;;;;;0.06;100.00;100658.66;5071112;28;20174;-75
2022/01/06 08:11:41;;;;;;;1.23;0.50;;;;;;;0.07;100.00;100654.91;5071189;28;20214;-75
2022/01/06 08:14:06;;;;;;;0.20;0.20;;;;;;;0.08;100.00;100660.03;5071452;28;20167;-75
2022/01/06 08:16:32;;;;;;;2.30;2.20;;;;;;;0.08;100.00;100657.38;5070895;28;20226;-75
2022/01/06 08:18:57;;;;;;;0.30;0.30;;;;;;;0.11;100.00;100656.88;5070805;28;20257;-75
2022/01/06 08:21:22;;;;;;;0.50;0.50;;;;;;;0.13;100.00;100664.69;5070941;28;20631;-75
2022/01/06 08:23:48;;;;;;;0.07;0.07;;;;;;;0.14;100.00;100669.00;5070826;28;20534;-74
2022/01/06 08:26:13;;;;;;;1.20;1.20;;;;;;;0.09;100.00;100668.91;5070805;28;20178;-75
2022/01/06 08:28:38;;;;;;;0.20;0.20;;;;;;;0.15;100.00;100674.19;5070904;28;20248;-75
2022/01/06 08:31:04;;;;;;;0.63;0.63;;;;;;;0.17;100.00;100677.44;5070922;28;20531;-74
2022/01/06 08:33:29;;;;;;;0.20;0.20;;;;;;;0.17;100.00;100676.63;5070927;28;20189;-75
2022/01/06 08:35:54;;;;;;;0.00;0.00;;;;;;;0.20;100.00;100686.88;5070591;28;20194;-75
2022/01/06 08:38:20;;;;;;;0.60;0.57;;;;;;;0.23;100.00;100686.41;5070772;28;20860;-75
2022/01/06 08:40:45;;;;;;;0.77;0.77;;;;;;;0.21;100.00;100677.78;5070818;28;20686;-75
2022/01/06 08:43:10;;;;;;;0.30;0.30;;;;;;;0.27;100.00;100693.75;5070823;28;20178;-75
2022/01/06 08:45:36;;;;;;;0.80;0.80;;;;;;;0.28;100.00;100689.19;5070897;28;20268;-75
2022/01/06 08:48:02;;;;;;;0.83;0.83;;;;;;;0.30;100.00;100684.41;5070947;28;20216;-75
2022/01/06 08:50:28;;;;;;;0.20;0.20;;;;;;;0.33;100.00;100683.13;5070469;28;20583;-75
2022/01/06 08:52:53;;;;;;;0.00;0.00;;;;;;;0.40;100.00;100697.22;5070652;28;20349;-75
2022/01/06 08:55:19;;;;;;;0.20;0.20;;;;;;;0.45;100.00;100691.97;5069074;28;20969;-75
2022/01/06 08:57:44;;;;;;;4.83;0.97;;;;;;;0.49;100.00;100693.13;5070381;28;20203;-75
2022/01/06 09:00:11;;;;;;;0.53;0.03;;;;;;;0.49;100.00;100693.94;5070571;28;20639;-74
2022/01/06 09:02:37;;;;;;;0.87;0.87;;;;;;;0.52;100.00;100693.47;5070553;28;20166;-75
2022/01/06 09:05:06;;;;;;;0.63;0.63;;;;;;;0.54;100.00;100699.41;5069028;28;20424;-75
2022/01/06 09:07:33;;;;;;;1.43;1.07;;;;;;;0.59;100.00;100712.97;5069180;28;20811;-74
2022/01/06 09:09:58;;;;;;;0.37;0.37;;;;;;;0.61;100.00;100707.34;5070422;28;20409;-75
2022/01/06 09:12:23;;;;;;;1.43;1.33;;;;;;;0.61;100.00;100715.41;5070540;28;20499;-75
2022/01/06 09:14:49;;;;;;;0.60;0.60;;;;;;;0.64;100.00;100716.81;5070548;28;20197;-75
2022/01/06 09:17:14;;;;;;;0.30;0.30;;;;;;;0.68;100.00;100721.44;5073046;28;20539;-77
2022/01/06 09:19:40;;;;;;;0.40;0.40;;;;;;;0.69;100.00;100720.41;5074311;28;20175;-76
2022/01/06 09:22:06;;;;;;;1.90;0.77;;;;;;;0.70;100.00;100718.53;5074305;28;20304;-75
2022/01/06 09:24:32;;;;;;;0.07;0.07;;;;;;;0.74;100.00;100723.19;5074135;28;20197;-75
2022/01/06 09:26:57;;;;;;;1.07;0.73;;;;;;;0.76;100.00;100722.97;5074350;28;20170;-74
2022/01/06 09:29:22;;;;;;;0.70;0.70;;;;;;;0.83;100.00;100729.00;5072970;28;20187;-74
2022/01/06 09:31:48;;;;;;;0.40;0.40;;;;;;;0.92;100.00;100732.94;5074193;28;20624;-76
2022/01/06 09:34:13;;;;;;;0.53;0.40;;;;;;;1.01;100.00;100734.16;5074155;28;20508;-74
2022/01/06 09:36:41;;;;;;;0.10;0.10;;;;;;;1.12;100.00;100740.56;5073852;28;20198;-74
2022/01/06 09:39:09;;;;;;;0.13;0.13;;;;;;;1.21;100.00;100738.31;5073981;28;20174;-72
2022/01/06 09:41:35;;;;;;;0.27;0.27;;;;;;;1.23;100.00;100736.19;5072582;28;20424;-76
2022/01/06 09:44:00;;;;;;;0.40;0.40;;;;;;;1.30;100.00;100747.59;5073722;28;20417;-81
2022/01/06 09:46:26;;;;;;;0.07;0.07;;;;;;;1.31;100.00;100757.34;5073592;28;20178;-73
2022/01/06 09:48:57;;;;;;;1.40;0.87;;;;;;;1.25;100.00;100748.34;5073805;28;20182;-73
2022/01/06 09:51:23;;;;;;;0.30;0.20;;;;;;;1.25;100.00;100760.97;5073941;28;20488;-73
2022/01/06 09:53:50;;;;;;;0.23;0.23;;;;;;;1.24;100.00;100751.28;5074141;28;20448;-75
2022/01/06 09:56:15;;;;;;;3.60;2.97;;;;;;;1.23;100.00;100761.22;5073370;28;20456;-73
2022/01/06 09:58:40;;;;;;;0.07;0.07;;;;;;;1.19;100.00;100754.69;5073613;28;20423;-74
2022/01/06 10:01:06;;;;;;;0.83;0.77;;;;;;;1.23;100.00;100760.41;5073615;28;20224;-74
2022/01/06 10:03:36;;;;;;;0.73;0.73;;;;;;;1.24;100.00;100767.41;5073811;28;20167;-73
2022/01/06 10:06:21;;;;;;;0.67;0.67;;;;;;;1.29;100.00;100764.81;5072099;28;20642;-75
2022/01/06 10:08:50;;;;;;;8.53;1.23;;;;;;;1.30;100.00;100767.28;5073433;28;20812;-73
2022/01/06 10:11:21;;;;;;;0.50;0.50;;;;;;;1.32;100.00;100762.47;5073196;28;20417;-73
2022/01/06 10:14:05;;;;;;;0.00;0.00;;;;;;;1.36;100.00;100765.50;5073223;28;20257;-74
2022/01/06 10:16:32;;;;;;;14.20;0.50;;;;;;;1.34;100.00;100767.63;5072988;28;20456;-73
2022/01/06 10:18:59;;;;;;;2.73;0.97;;;;;;;1.37;100.00;100767.94;5072917;28;20545;-73
2022/01/06 10:21:28;;;;;;;0.30;0.30;;;;;;;1.40;100.00;100769.31;5073032;28;20427;-74
2022/01/06 10:24:19;;;;;;;2.43;0.87;;;;;;;1.45;100.00;100766.75;5073092;28;20437;-75
2022/01/06 10:27:04;;;;;;;2.83;1.13;;;;;;;1.51;100.00;100775.69;5067687;28;20424;-73
2022/01/06 10:29:35;;;;;;;0.83;0.80;;;;;;;1.51;100.00;100779.22;5066635;28;20456;-73
2022/01/06 10:32:31;;;;;;;5.10;1.73;;;;;;;1.59;100.00;100767.22;5072009;28;20483;-74
2022/01/06 10:35:02;;;;;;;0.67;0.67;;;;;;;1.61;100.00;100773.19;5052228;28;21000;-73
2022/01/06 10:37:30;;;;;;;0.10;0.10;;;;;;;1.66;100.00;100775.97;5070821;28;21006;-73
2022/01/06 10:40:01;;;;;;;0.40;0.40;;;;;;;1.64;100.00;100775.41;5072786;28;20186;-73
2022/01/06 10:42:30;;;;;;;0.83;0.73;;;;;;;1.72;100.00;100783.88;5070171;28;20793;-73
2022/01/06 10:45:00;;;;;;;0.30;0.30;;;;;;;1.74;100.00;100783.66;5072486;28;20793;-73
2022/01/06 10:47:46;;;;;;;15.43;1.43;;;;;;;1.76;100.00;100776.13;5072684;28;20423;-73
2022/01/06 10:50:25;;;;;;;0.53;0.47;;;;;;;1.81;100.00;100783.47;5071394;28;20421;-74
2022/01/06 10:52:51;;;;;;;1.07;1.07;;;;;;;1.86;100.00;100780.84;5072710;28;20508;-74
2022/01/06 10:55:28;;;;;;;0.00;0.00;;;;;;;1.94;100.00;100789.34;5071150;28;20654;-74
2022/01/06 10:58:04;;;;;;;1.97;1.30;;;;;;;2.02;100.00;100788.91;5072402;28;20471;-74
2022/01/06 11:00:32;;;;;;;0.57;0.57;;;;;;;2.01;100.00;100795.38;5072600;28;20159;-74
2022/01/06 11:03:13;;;;;;;0.80;0.80;;;;;;;2.03;100.00;100801.34;5071664;28;20431;-74
2022/01/06 11:05:45;;;;;;;1.13;0.97;;;;;;;2.06;100.00;100798.16;5070148;28;20261;-74
2022/01/06 11:08:12;;;;;;;0.40;0.40;;;;;;;2.05;100.00;100787.63;5070661;28;20175;-74
2022/01/06 11:10:46;;;;;;;2.17;1.17;;;;;;;2.15;100.00;100789.66;5072134;28;20179;-75
2022/01/06 11:13:12;;;;;;;1.47;1.37;;;;;;;2.06;100.00;100800.84;5071924;28;20179;-75
2022/01/06 11:15:38;;;;;;;1.50;1.40;;;;;;;2.11;100.00;100797.41;5070935;28;20662;-74
2022/01/06 11:18:05;;;;;;;1.70;1.60;;;;;;;2.09;100.00;100800.34;5080363;28;20178;-74
2022/01/06 11:20:31;;;;;;;0.53;0.53;;;;;;;2.15;100.00;100803.94;5089997;28;20173;-74
2022/01/06 11:22:58;;;;;;;2.00;1.67;;;;;;;2.16;100.00;100808.25;5091795;28;20432;-74
2022/01/06 11:25:37;;;;;;;0.63;0.63;;;;;;;2.22;100.00;100806.47;5091765;28;20173;-74
2022/01/06 11:28:09;;;;;;;1.90;1.73;;;;;;;2.26;100.00;100808.41;5091471;28;20273;-74
2022/01/06 11:30:39;;;;;;;3.30;1.33;;;;;;;2.31;100.00;100800.41;5090489;28;20174;-74